Terminal Aerodrome Forecast
Issued by NWS

Home | Current Version | Previous Version | Text Only | Print | Product List | Glossary On
Versions: 1 2 3 4 5 6 7 8 9 10 11 12 13
000
FTUS45 KCYS 111141
TAFLAR
TAF
KLAR 111141Z 1112/1212 27022G32KT P6SM VCSH SCT025 OVC040
      TEMPO 1112/1114 3SM -SHSN BKN025
     FM111600 29016G26KT P6SM SCT050
     FM120900 27016KT P6SM SCT030 BKN050=

USA.gov is the U.S. government's official web portal to all federal, state and local government web resources and services.